Proud — 9HWA9 — position and weather

sailwx.info

Track history (hours):
 
Tides and Currents Weather Stations Pressure Air Temp Water Temp Dewpoint Dewpoint Depression Visibility Wind Speed Wind Dir Waves Ship Positions

Proud

Last reported at 2014-Sep-28 13:20 UTC. Time now 2014-Oct-02 16:36 UTC.
Position N 31°09' E 122°44'.

Length 292 m; draft 12 m.

Type: Cargo ship. MMSI: 249619000.

Date/timePositionNaut miles runAvg speedWind from/ knotsBaromVisibWave heightAir tempDewpointWater temp
2014-Sep-28 13:20N 31°09' E 122°44'  
2014-Sep-22 12:13N 30°60' E 122°57'1012.3
2014-Sep-22 11:22N 30°51' E 123°03'62 8.8
2014-Sep-22 04:20N 29°51' E 122°45'810.0
2014-Sep-22 03:33N 29°49' E 122°37'1010.1
2014-Sep-22 02:33N 29°46' E 122°26'9 8.6
2014-Sep-22 01:33N 29°47' E 122°16'1010.2
2014-Sep-22 00:33N 29°55' E 122°08'10 9.8
2014-Sep-21 23:33N 29°58' E 121°57'4 4.1
2014-Sep-21 22:32N 29°56' E 121°53'0 0.0
2014-Sep-21 21:32N 29°56' E 121°53'0 0.0
2014-Sep-21 20:14N 29°56' E 121°53'0 0.0
2014-Sep-21 18:20N 29°56' E 121°53'0 0.0
2014-Sep-21 17:32N 29°56' E 121°53'0 0.0
2014-Sep-21 16:26N 29°56' E 121°53'0 0.0
2014-Sep-21 15:32N 29°56' E 121°53'0 0.0
2014-Sep-21 12:29N 29°56' E 121°53'0 0.0
2014-Sep-21 11:29N 29°56' E 121°53'0 0.0
2014-Sep-21 09:23N 29°56' E 121°53'0 0.0
2014-Sep-21 08:29N 29°56' E 121°53'0 0.0
2014-Sep-21 07:32N 29°56' E 121°53'0 0.0
2014-Sep-21 02:32N 29°56' E 121°53'0 0.0
2014-Sep-21 01:17N 29°56' E 121°53'0 0.0
2014-Sep-21 00:05N 29°56' E 121°53'0 0.0
2014-Sep-20 22:29N 29°56' E 121°53'0 0.0
2014-Sep-20 21:26N 29°56' E 121°53'0 0.0
2014-Sep-20 20:32N 29°56' E 121°53'0 0.0
2014-Sep-20 19:26N 29°56' E 121°53'0 0.0
2014-Sep-20 18:05N 29°56' E 121°53'0 0.0
2014-Sep-20 17:32N 29°56' E 121°53'0 0.0
2014-Sep-20 16:29N 29°56' E 121°53'0 0.0
2014-Sep-20 15:23N 29°56' E 121°53'0 0.0
2014-Sep-20 14:05N 29°56' E 121°53'0 0.0
2014-Sep-20 13:33N 29°56' E 121°53'1 0.4
2014-Sep-20 12:08N 29°57' E 121°53'0 0.0
2014-Sep-20 11:33N 29°57' E 121°53'0 0.2
2014-Sep-20 10:33N 29°57' E 121°53'0 0.1
2014-Sep-20 09:33N 29°57' E 121°53'0 0.0
2014-Sep-20 08:33N 29°57' E 121°53'0 0.0
2014-Sep-20 07:33N 29°57' E 121°53'1 1.3
2014-Sep-20 06:33N 29°57' E 121°55'7 6.6
2014-Sep-20 05:33N 29°56' E 122°02'8 7.6
2014-Sep-20 04:33N 29°54' E 122°11'9 8.6
2014-Sep-20 03:33N 29°47' E 122°17'6 6.2
2014-Sep-20 02:33N 29°43' E 122°23'8 8.4
2014-Sep-20 01:33N 29°43' E 122°32'3 0.9
2014-Sep-19 22:18N 29°45' E 122°35'0 0.1
2014-Sep-19 18:25N 29°45' E 122°36'2 2.3
2014-Sep-19 17:33N 29°43' E 122°36'  
Track history (hours):
 
Tides and Currents Weather Stations Pressure Air Temp Water Temp Dewpoint Dewpoint Depression Visibility Wind Speed Wind Dir Waves Ship Positions

Proud

Last reported at 2014-Sep-28 13:20 UTC. Time now 2014-Oct-02 16:36 UTC.
Position N 31°09' E 122°44'.

Length 292 m; draft 12 m.

Type: Cargo ship. MMSI: 249619000.

Date/timePositionNaut miles runAvg speedWind from/ knotsBaromVisibWave heightAir tempDewpointWater temp
2014-Sep-28 13:20N 31°09' E 122°44'  
2014-Sep-22 12:13N 30°60' E 122°57'1012.3
2014-Sep-22 11:22N 30°51' E 123°03'62 8.8
2014-Sep-22 04:20N 29°51' E 122°45'810.0
2014-Sep-22 03:33N 29°49' E 122°37'1010.1
2014-Sep-22 02:33N 29°46' E 122°26'9 8.6
2014-Sep-22 01:33N 29°47' E 122°16'1010.2
2014-Sep-22 00:33N 29°55' E 122°08'10 9.8
2014-Sep-21 23:33N 29°58' E 121°57'4 4.1
2014-Sep-21 22:32N 29°56' E 121°53'0 0.0
2014-Sep-21 21:32N 29°56' E 121°53'0 0.0
2014-Sep-21 20:14N 29°56' E 121°53'0 0.0
2014-Sep-21 18:20N 29°56' E 121°53'0 0.0
2014-Sep-21 17:32N 29°56' E 121°53'0 0.0
2014-Sep-21 16:26N 29°56' E 121°53'0 0.0
2014-Sep-21 15:32N 29°56' E 121°53'0 0.0
2014-Sep-21 12:29N 29°56' E 121°53'0 0.0
2014-Sep-21 11:29N 29°56' E 121°53'0 0.0
2014-Sep-21 09:23N 29°56' E 121°53'0 0.0
2014-Sep-21 08:29N 29°56' E 121°53'0 0.0
2014-Sep-21 07:32N 29°56' E 121°53'0 0.0
2014-Sep-21 02:32N 29°56' E 121°53'0 0.0
2014-Sep-21 01:17N 29°56' E 121°53'0 0.0
2014-Sep-21 00:05N 29°56' E 121°53'0 0.0
2014-Sep-20 22:29N 29°56' E 121°53'0 0.0
2014-Sep-20 21:26N 29°56' E 121°53'0 0.0
2014-Sep-20 20:32N 29°56' E 121°53'0 0.0
2014-Sep-20 19:26N 29°56' E 121°53'0 0.0
2014-Sep-20 18:05N 29°56' E 121°53'0 0.0
2014-Sep-20 17:32N 29°56' E 121°53'0 0.0
2014-Sep-20 16:29N 29°56' E 121°53'0 0.0
2014-Sep-20 15:23N 29°56' E 121°53'0 0.0
2014-Sep-20 14:05N 29°56' E 121°53'0 0.0
2014-Sep-20 13:33N 29°56' E 121°53'1 0.4
2014-Sep-20 12:08N 29°57' E 121°53'0 0.0
2014-Sep-20 11:33N 29°57' E 121°53'0 0.2
2014-Sep-20 10:33N 29°57' E 121°53'0 0.1
2014-Sep-20 09:33N 29°57' E 121°53'0 0.0
2014-Sep-20 08:33N 29°57' E 121°53'0 0.0
2014-Sep-20 07:33N 29°57' E 121°53'1 1.3
2014-Sep-20 06:33N 29°57' E 121°55'7 6.6
2014-Sep-20 05:33N 29°56' E 122°02'8 7.6
2014-Sep-20 04:33N 29°54' E 122°11'9 8.6
2014-Sep-20 03:33N 29°47' E 122°17'6 6.2
2014-Sep-20 02:33N 29°43' E 122°23'8 8.4
2014-Sep-20 01:33N 29°43' E 122°32'3 0.9
2014-Sep-19 22:18N 29°45' E 122°35'0 0.1
2014-Sep-19 18:25N 29°45' E 122°36'2 2.3
2014-Sep-19 17:33N 29°43' E 122°36'  

Dump ship's entire track history